Terminal Aerodrome Forecast
Issued by NWS Sioux Falls, SD

Home | Current Version | Previous Version | Text Only | Print | Product List | Glossary On
Versions: 1 2 3 4 5 6 7 8 9 10 11 12 13 14 15 16 17 18 19 20
000
FTUS43 KFSD 260520
TAFFSD
TAF
KFSD 260520Z 2606/2706 02015KT P6SM OVC011
     FM261000 36012KT P6SM OVC007
      TEMPO 2612/2614 5SM -SN
     FM261400 35012KT 3SM -SN OVC012
     FM261700 36011KT P6SM OVC015
     FM270100 36010KT 2SM -SN BR OVC010=

USA.gov is the U.S. government's official web portal to all federal, state and local government web resources and services.